Seven Bays, Washington
Current Conditions -  °F | °C
As of 4:58 PM on Saturday 22 Nov 2014 (Local Time) from KSKA Reporting Station
Clear Clear  
Wind Chill: 26°   Ceiling: Unl
Heat Index: 35°   Visibility: 10mi
Dew Point: 33°   Wind: 14mph
Humidity: 91%   Direction: 220°SW
Pressure: 29.78"   Gusts: NA
Location:  47.7035°N, 118.192°W
Report Text: KSKA 230058Z AUTO 22012KT 10SM CLR 02/00 A2978 RMK AO2 SLP106 T00160003 RVRNO $
Loading
Personal Weather Stations






























Interactive Weather Map New forecast layout! Learn more

10-Day Weather Forecast

Advertisements
Track Severe Weather on mobile